sensor_id;sensor_type;location;lat;lon;timestamp;P1;durP1;ratioP1;P2;durP2;ratioP2
16352;SDS011;8286;51.274;9.542;2023-04-03T00:01:59;2.87;;;1.00;;
16352;SDS011;8286;51.274;9.542;2023-04-03T00:04:26;3.70;;;1.67;;
16352;SDS011;8286;51.274;9.542;2023-04-03T00:06:52;3.30;;;1.40;;
16352;SDS011;8286;51.274;9.542;2023-04-03T00:09:19;1.00;;;1.00;;
16352;SDS011;8286;51.274;9.542;2023-04-03T00:11:47;3.93;;;2.33;;
16352;SDS011;8286;51.274;9.542;2023-04-03T00:14:13;4.63;;;2.20;;
16352;SDS011;8286;51.274;9.542;2023-04-03T00:16:40;1.73;;;1.10;;
16352;SDS011;8286;51.274;9.542;2023-04-03T00:19:06;2.47;;;1.00;;
16352;SDS011;8286;51.274;9.542;2023-04-03T00:21:33;1.90;;;1.13;;
16352;SDS011;8286;51.274;9.542;2023-04-03T00:23:59;3.50;;;1.23;;
16352;SDS011;8286;51.274;9.542;2023-04-03T00:26:26;2.93;;;1.37;;
16352;SDS011;8286;51.274;9.542;2023-04-03T00:28:54;2.23;;;1.00;;
16352;SDS011;8286;51.274;9.542;2023-04-03T00:31:21;1.80;;;1.30;;
16352;SDS011;8286;51.274;9.542;2023-04-03T00:33:47;3.13;;;1.50;;
16352;SDS011;8286;51.274;9.542;2023-04-03T00:36:14;7.20;;;1.30;;
16352;SDS011;8286;51.274;9.542;2023-04-03T00:38:41;1.90;;;1.00;;
16352;SDS011;8286;51.274;9.542;2023-04-03T00:41:07;1.60;;;1.23;;
16352;SDS011;8286;51.274;9.542;2023-04-03T00:43:34;3.57;;;1.00;;
16352;SDS011;8286;51.274;9.542;2023-04-03T00:46:02;2.53;;;1.03;;
16352;SDS011;8286;51.274;9.542;2023-04-03T00:48:29;1.50;;;0.90;;
16352;SDS011;8286;51.274;9.542;2023-04-03T00:50:57;3.50;;;1.20;;
16352;SDS011;8286;51.274;9.542;2023-04-03T00:53:25;2.50;;;1.20;;
16352;SDS011;8286;51.274;9.542;2023-04-03T00:55:54;7.83;;;1.50;;
16352;SDS011;8286;51.274;9.542;2023-04-03T00:58:22;2.07;;;1.40;;
16352;SDS011;8286;51.274;9.542;2023-04-03T01:00:54;1.87;;;1.17;;
16352;SDS011;8286;51.274;9.542;2023-04-03T01:03:24;1.23;;;1.13;;
16352;SDS011;8286;51.274;9.542;2023-04-03T01:05:50;1.47;;;1.30;;
16352;SDS011;8286;51.274;9.542;2023-04-03T01:08:17;1.83;;;1.20;;
16352;SDS011;8286;51.274;9.542;2023-04-03T01:10:43;1.87;;;1.10;;
16352;SDS011;8286;51.274;9.542;2023-04-03T01:13:17;1.20;;;1.10;;
16352;SDS011;8286;51.274;9.542;2023-04-03T01:15:47;9.57;;;1.80;;
16352;SDS011;8286;51.274;9.542;2023-04-03T01:18:14;1.27;;;1.13;;
16352;SDS011;8286;51.274;9.542;2023-04-03T01:23:37;3.90;;;1.20;;
16352;SDS011;8286;51.274;9.542;2023-04-03T01:26:11;2.03;;;1.40;;
16352;SDS011;8286;51.274;9.542;2023-04-03T01:28:38;6.60;;;1.60;;
16352;SDS011;8286;51.274;9.542;2023-04-03T01:31:07;1.87;;;1.10;;
16352;SDS011;8286;51.274;9.542;2023-04-03T01:33:41;1.53;;;1.30;;
16352;SDS011;8286;51.274;9.542;2023-04-03T01:36:08;1.97;;;1.23;;
16352;SDS011;8286;51.274;9.542;2023-04-03T01:38:35;4.90;;;1.77;;
16352;SDS011;8286;51.274;9.542;2023-04-03T01:41:01;4.77;;;1.30;;
16352;SDS011;8286;51.274;9.542;2023-04-03T01:43:28;1.30;;;1.20;;
16352;SDS011;8286;51.274;9.542;2023-04-03T01:45:54;1.73;;;1.40;;
16352;SDS011;8286;51.274;9.542;2023-04-03T01:48:21;2.43;;;1.47;;
16352;SDS011;8286;51.274;9.542;2023-04-03T01:50:49;5.80;;;1.23;;
16352;SDS011;8286;51.274;9.542;2023-04-03T01:53:15;4.20;;;1.07;;
16352;SDS011;8286;51.274;9.542;2023-04-03T01:55:42;1.50;;;1.40;;
16352;SDS011;8286;51.274;9.542;2023-04-03T01:58:08;1.97;;;1.40;;
16352;SDS011;8286;51.274;9.542;2023-04-03T02:00:35;1.60;;;1.00;;
16352;SDS011;8286;51.274;9.542;2023-04-03T02:03:02;2.23;;;1.17;;
16352;SDS011;8286;51.274;9.542;2023-04-03T02:05:28;2.90;;;1.17;;
16352;SDS011;8286;51.274;9.542;2023-04-03T02:07:56;1.80;;;1.40;;
16352;SDS011;8286;51.274;9.542;2023-04-03T02:10:23;2.30;;;1.20;;
16352;SDS011;8286;51.274;9.542;2023-04-03T02:12:49;1.60;;;1.50;;
16352;SDS011;8286;51.274;9.542;2023-04-03T02:15:16;1.57;;;1.13;;
16352;SDS011;8286;51.274;9.542;2023-04-03T02:17:43;1.63;;;1.33;;
16352;SDS011;8286;51.274;9.542;2023-04-03T02:20:09;1.40;;;1.37;;
16352;SDS011;8286;51.274;9.542;2023-04-03T02:22:36;2.77;;;1.57;;
16352;SDS011;8286;51.274;9.542;2023-04-03T02:25:05;6.10;;;1.50;;
16352;SDS011;8286;51.274;9.542;2023-04-03T02:27:31;1.23;;;1.10;;
16352;SDS011;8286;51.274;9.542;2023-04-03T02:29:58;2.13;;;1.20;;
16352;SDS011;8286;51.274;9.542;2023-04-03T02:32:24;1.07;;;1.07;;
16352;SDS011;8286;51.274;9.542;2023-04-03T02:34:51;1.77;;;1.30;;
16352;SDS011;8286;51.274;9.542;2023-04-03T02:37:17;1.40;;;1.30;;
16352;SDS011;8286;51.274;9.542;2023-04-03T02:39:44;4.17;;;1.63;;
16352;SDS011;8286;51.274;9.542;2023-04-03T02:42:12;2.00;;;1.30;;
16352;SDS011;8286;51.274;9.542;2023-04-03T02:44:38;4.73;;;1.20;;
16352;SDS011;8286;51.274;9.542;2023-04-03T02:47:05;3.83;;;1.17;;
16352;SDS011;8286;51.274;9.542;2023-04-03T02:49:31;2.87;;;1.67;;
16352;SDS011;8286;51.274;9.542;2023-04-03T02:51:58;4.80;;;1.23;;
16352;SDS011;8286;51.274;9.542;2023-04-03T02:54:24;3.07;;;1.23;;
16352;SDS011;8286;51.274;9.542;2023-04-03T02:56:53;3.30;;;1.40;;
16352;SDS011;8286;51.274;9.542;2023-04-03T02:59:21;1.93;;;1.30;;
16352;SDS011;8286;51.274;9.542;2023-04-03T03:01:48;2.93;;;1.47;;
16352;SDS011;8286;51.274;9.542;2023-04-03T03:04:14;3.43;;;1.50;;
16352;SDS011;8286;51.274;9.542;2023-04-03T03:06:41;1.73;;;1.37;;
16352;SDS011;8286;51.274;9.542;2023-04-03T03:09:07;3.93;;;1.30;;
16352;SDS011;8286;51.274;9.542;2023-04-03T03:11:34;1.53;;;1.30;;
16352;SDS011;8286;51.274;9.542;2023-04-03T03:14:00;2.67;;;1.30;;
16352;SDS011;8286;51.274;9.542;2023-04-03T03:16:28;7.33;;;1.50;;
16352;SDS011;8286;51.274;9.542;2023-04-03T03:18:55;1.50;;;1.40;;
16352;SDS011;8286;51.274;9.542;2023-04-03T03:21:21;7.90;;;2.00;;
16352;SDS011;8286;51.274;9.542;2023-04-03T03:23:48;3.80;;;1.40;;
16352;SDS011;8286;51.274;9.542;2023-04-03T03:26:14;1.50;;;1.40;;
16352;SDS011;8286;51.274;9.542;2023-04-03T03:28:41;1.10;;;1.10;;
16352;SDS011;8286;51.274;9.542;2023-04-03T03:31:08;3.73;;;1.30;;
16352;SDS011;8286;51.274;9.542;2023-04-03T03:33:36;5.63;;;1.50;;
16352;SDS011;8286;51.274;9.542;2023-04-03T03:36:03;5.30;;;1.77;;
16352;SDS011;8286;51.274;9.542;2023-04-03T03:38:29;3.10;;;1.60;;
16352;SDS011;8286;51.274;9.542;2023-04-03T03:40:56;2.37;;;1.70;;
16352;SDS011;8286;51.274;9.542;2023-04-03T03:43:22;2.63;;;1.40;;
16352;SDS011;8286;51.274;9.542;2023-04-03T03:45:49;3.93;;;1.97;;
16352;SDS011;8286;51.274;9.542;2023-04-03T03:48:17;1.93;;;1.40;;
16352;SDS011;8286;51.274;9.542;2023-04-03T03:50:45;4.07;;;1.63;;
16352;SDS011;8286;51.274;9.542;2023-04-03T03:53:11;1.60;;;1.50;;
16352;SDS011;8286;51.274;9.542;2023-04-03T03:55:38;3.27;;;1.53;;
16352;SDS011;8286;51.274;9.542;2023-04-03T03:58:04;7.03;;;1.40;;
16352;SDS011;8286;51.274;9.542;2023-04-03T04:00:31;5.70;;;1.47;;
16352;SDS011;8286;51.274;9.542;2023-04-03T04:02:57;3.43;;;1.97;;
16352;SDS011;8286;51.274;9.542;2023-04-03T04:05:24;4.47;;;1.60;;
16352;SDS011;8286;51.274;9.542;2023-04-03T04:07:52;1.70;;;1.60;;
16352;SDS011;8286;51.274;9.542;2023-04-03T04:10:18;2.73;;;1.67;;
16352;SDS011;8286;51.274;9.542;2023-04-03T04:12:45;2.93;;;1.53;;
16352;SDS011;8286;51.274;9.542;2023-04-03T04:15:14;2.47;;;1.50;;
16352;SDS011;8286;51.274;9.542;2023-04-03T04:17:40;2.77;;;1.70;;
16352;SDS011;8286;51.274;9.542;2023-04-03T04:20:07;3.67;;;1.60;;
16352;SDS011;8286;51.274;9.542;2023-04-03T04:22:34;7.37;;;1.60;;
16352;SDS011;8286;51.274;9.542;2023-04-03T04:25:02;1.80;;;1.67;;
16352;SDS011;8286;51.274;9.542;2023-04-03T04:27:29;2.13;;;1.93;;
16352;SDS011;8286;51.274;9.542;2023-04-03T04:29:55;4.50;;;2.00;;
16352;SDS011;8286;51.274;9.542;2023-04-03T04:32:22;3.50;;;2.00;;
16352;SDS011;8286;51.274;9.542;2023-04-03T04:34:48;6.20;;;1.80;;
16352;SDS011;8286;51.274;9.542;2023-04-03T04:37:15;2.57;;;1.57;;
16352;SDS011;8286;51.274;9.542;2023-04-03T04:39:41;4.07;;;1.83;;
16352;SDS011;8286;51.274;9.542;2023-04-03T04:42:09;3.47;;;1.70;;
16352;SDS011;8286;51.274;9.542;2023-04-03T04:44:37;4.27;;;1.90;;
16352;SDS011;8286;51.274;9.542;2023-04-03T04:47:04;3.83;;;1.73;;
16352;SDS011;8286;51.274;9.542;2023-04-03T04:49:30;4.53;;;1.20;;
16352;SDS011;8286;51.274;9.542;2023-04-03T04:51:57;2.90;;;1.90;;
16352;SDS011;8286;51.274;9.542;2023-04-03T04:54:24;2.43;;;1.90;;
16352;SDS011;8286;51.274;9.542;2023-04-03T04:56:50;9.07;;;3.17;;
16352;SDS011;8286;51.274;9.542;2023-04-03T04:59:18;2.70;;;2.50;;
16352;SDS011;8286;51.274;9.542;2023-04-03T05:01:44;3.43;;;2.17;;
16352;SDS011;8286;51.274;9.542;2023-04-03T05:04:11;4.17;;;2.67;;
16352;SDS011;8286;51.274;9.542;2023-04-03T05:06:38;3.77;;;2.53;;
16352;SDS011;8286;51.274;9.542;2023-04-03T05:09:05;7.53;;;2.00;;
16352;SDS011;8286;51.274;9.542;2023-04-03T05:11:31;6.07;;;1.90;;
16352;SDS011;8286;51.274;9.542;2023-04-03T05:13:58;3.80;;;2.20;;
16352;SDS011;8286;51.274;9.542;2023-04-03T05:16:26;5.77;;;2.70;;
16352;SDS011;8286;51.274;9.542;2023-04-03T05:18:52;5.90;;;2.13;;
16352;SDS011;8286;51.274;9.542;2023-04-03T05:21:19;2.50;;;1.83;;
16352;SDS011;8286;51.274;9.542;2023-04-03T05:23:48;6.43;;;1.93;;
16352;SDS011;8286;51.274;9.542;2023-04-03T05:26:15;3.03;;;1.67;;
16352;SDS011;8286;51.274;9.542;2023-04-03T05:28:41;2.57;;;1.90;;
16352;SDS011;8286;51.274;9.542;2023-04-03T05:31:08;5.87;;;1.53;;
16352;SDS011;8286;51.274;9.542;2023-04-03T05:33:36;2.73;;;1.53;;
16352;SDS011;8286;51.274;9.542;2023-04-03T05:36:03;5.77;;;1.90;;
16352;SDS011;8286;51.274;9.542;2023-04-03T05:38:30;4.10;;;1.90;;
16352;SDS011;8286;51.274;9.542;2023-04-03T05:40:56;2.50;;;2.20;;
16352;SDS011;8286;51.274;9.542;2023-04-03T05:43:23;4.07;;;1.90;;
16352;SDS011;8286;51.274;9.542;2023-04-03T05:45:50;2.00;;;1.90;;
16352;SDS011;8286;51.274;9.542;2023-04-03T05:48:16;1.83;;;1.40;;
16352;SDS011;8286;51.274;9.542;2023-04-03T05:50:45;3.37;;;2.10;;
16352;SDS011;8286;51.274;9.542;2023-04-03T05:53:13;5.27;;;1.97;;
16352;SDS011;8286;51.274;9.542;2023-04-03T05:55:43;4.47;;;1.93;;
16352;SDS011;8286;51.274;9.542;2023-04-03T05:58:10;5.30;;;2.00;;
16352;SDS011;8286;51.274;9.542;2023-04-03T06:00:36;3.73;;;1.80;;
16352;SDS011;8286;51.274;9.542;2023-04-03T06:03:03;6.67;;;1.93;;
16352;SDS011;8286;51.274;9.542;2023-04-03T06:05:30;2.17;;;1.90;;
16352;SDS011;8286;51.274;9.542;2023-04-03T06:07:58;2.27;;;1.63;;
16352;SDS011;8286;51.274;9.542;2023-04-03T06:10:24;3.20;;;1.70;;
16352;SDS011;8286;51.274;9.542;2023-04-03T06:12:51;3.50;;;1.67;;
16352;SDS011;8286;51.274;9.542;2023-04-03T06:15:17;4.80;;;1.73;;
16352;SDS011;8286;51.274;9.542;2023-04-03T06:17:44;7.17;;;1.77;;
16352;SDS011;8286;51.274;9.542;2023-04-03T06:20:11;2.67;;;1.60;;
16352;SDS011;8286;51.274;9.542;2023-04-03T06:22:38;2.77;;;1.57;;
16352;SDS011;8286;51.274;9.542;2023-04-03T06:25:08;7.87;;;1.80;;
16352;SDS011;8286;51.274;9.542;2023-04-03T06:27:35;4.57;;;2.10;;
16352;SDS011;8286;51.274;9.542;2023-04-03T06:30:02;2.87;;;1.90;;
16352;SDS011;8286;51.274;9.542;2023-04-03T06:32:29;6.30;;;1.97;;
16352;SDS011;8286;51.274;9.542;2023-04-03T06:34:56;2.37;;;1.50;;
16352;SDS011;8286;51.274;9.542;2023-04-03T06:37:23;3.37;;;2.00;;
16352;SDS011;8286;51.274;9.542;2023-04-03T06:39:53;2.10;;;1.80;;
16352;SDS011;8286;51.274;9.542;2023-04-03T06:42:20;4.57;;;1.73;;
16352;SDS011;8286;51.274;9.542;2023-04-03T06:44:47;4.80;;;1.80;;
16352;SDS011;8286;51.274;9.542;2023-04-03T06:47:14;2.23;;;1.70;;
16352;SDS011;8286;51.274;9.542;2023-04-03T06:49:41;2.73;;;1.40;;
16352;SDS011;8286;51.274;9.542;2023-04-03T06:52:08;6.37;;;1.67;;
16352;SDS011;8286;51.274;9.542;2023-04-03T06:54:37;2.87;;;2.20;;
16352;SDS011;8286;51.274;9.542;2023-04-03T06:57:03;2.67;;;1.80;;
16352;SDS011;8286;51.274;9.542;2023-04-03T06:59:31;1.77;;;1.67;;
16352;SDS011;8286;51.274;9.542;2023-04-03T07:01:58;4.20;;;1.87;;
16352;SDS011;8286;51.274;9.542;2023-04-03T07:04:24;2.87;;;1.43;;
16352;SDS011;8286;51.274;9.542;2023-04-03T07:06:51;2.87;;;1.70;;
16352;SDS011;8286;51.274;9.542;2023-04-03T07:09:18;2.60;;;1.40;;
16352;SDS011;8286;51.274;9.542;2023-04-03T07:11:45;2.77;;;1.40;;
16352;SDS011;8286;51.274;9.542;2023-04-03T07:14:12;2.27;;;1.47;;
16352;SDS011;8286;51.274;9.542;2023-04-03T07:16:40;2.97;;;1.60;;
16352;SDS011;8286;51.274;9.542;2023-04-03T07:19:06;4.47;;;1.73;;
16352;SDS011;8286;51.274;9.542;2023-04-03T07:21:33;4.17;;;1.50;;
16352;SDS011;8286;51.274;9.542;2023-04-03T07:24:00;3.07;;;1.57;;
16352;SDS011;8286;51.274;9.542;2023-04-03T07:26:27;1.63;;;1.37;;
16352;SDS011;8286;51.274;9.542;2023-04-03T07:28:53;1.57;;;1.40;;
16352;SDS011;8286;51.274;9.542;2023-04-03T07:31:20;4.83;;;1.60;;
16352;SDS011;8286;51.274;9.542;2023-04-03T07:33:47;6.30;;;1.83;;
16352;SDS011;8286;51.274;9.542;2023-04-03T07:36:15;3.70;;;1.10;;
16352;SDS011;8286;51.274;9.542;2023-04-03T07:38:43;4.43;;;1.47;;
16352;SDS011;8286;51.274;9.542;2023-04-03T07:41:11;1.93;;;1.40;;
16352;SDS011;8286;51.274;9.542;2023-04-03T07:43:38;4.87;;;1.50;;
16352;SDS011;8286;51.274;9.542;2023-04-03T07:46:05;2.43;;;1.13;;
16352;SDS011;8286;51.274;9.542;2023-04-03T07:48:32;2.00;;;1.10;;
16352;SDS011;8286;51.274;9.542;2023-04-03T07:51:01;1.43;;;1.10;;
16352;SDS011;8286;51.274;9.542;2023-04-03T07:53:29;2.87;;;1.27;;
16352;SDS011;8286;51.274;9.542;2023-04-03T07:55:58;4.27;;;1.13;;
16352;SDS011;8286;51.274;9.542;2023-04-03T07:58:27;1.50;;;1.40;;
16352;SDS011;8286;51.274;9.542;2023-04-03T08:00:54;4.63;;;1.57;;
16352;SDS011;8286;51.274;9.542;2023-04-03T08:03:21;5.40;;;1.50;;
16352;SDS011;8286;51.274;9.542;2023-04-03T08:05:48;3.40;;;1.17;;
16352;SDS011;8286;51.274;9.542;2023-04-03T08:08:17;2.73;;;1.57;;
16352;SDS011;8286;51.274;9.542;2023-04-03T08:10:47;1.50;;;1.13;;
16352;SDS011;8286;51.274;9.542;2023-04-03T08:13:14;1.77;;;1.20;;
16352;SDS011;8286;51.274;9.542;2023-04-03T08:15:41;3.00;;;1.30;;
16352;SDS011;8286;51.274;9.542;2023-04-03T08:18:08;2.77;;;1.10;;
16352;SDS011;8286;51.274;9.542;2023-04-03T08:20:35;4.40;;;1.10;;
16352;SDS011;8286;51.274;9.542;2023-04-03T08:23:01;0.90;;;0.90;;
16352;SDS011;8286;51.274;9.542;2023-04-03T08:25:29;3.73;;;1.20;;
16352;SDS011;8286;51.274;9.542;2023-04-03T08:27:56;1.87;;;1.00;;
16352;SDS011;8286;51.274;9.542;2023-04-03T08:30:22;1.17;;;0.90;;
16352;SDS011;8286;51.274;9.542;2023-04-03T08:32:49;1.20;;;0.90;;
16352;SDS011;8286;51.274;9.542;2023-04-03T08:35:16;1.00;;;0.80;;
16352;SDS011;8286;51.274;9.542;2023-04-03T08:37:42;1.17;;;1.07;;
16352;SDS011;8286;51.274;9.542;2023-04-03T08:40:12;6.17;;;1.63;;
16352;SDS011;8286;51.274;9.542;2023-04-03T08:42:44;1.37;;;0.87;;
16352;SDS011;8286;51.274;9.542;2023-04-03T08:45:16;1.30;;;1.20;;
16352;SDS011;8286;51.274;9.542;2023-04-03T08:47:46;4.03;;;1.20;;
16352;SDS011;8286;51.274;9.542;2023-04-03T08:50:16;0.93;;;0.93;;
16352;SDS011;8286;51.274;9.542;2023-04-03T08:52:45;2.97;;;1.73;;
16352;SDS011;8286;51.274;9.542;2023-04-03T08:55:17;1.20;;;1.03;;
16352;SDS011;8286;51.274;9.542;2023-04-03T08:57:50;2.00;;;1.00;;
16352;SDS011;8286;51.274;9.542;2023-04-03T09:00:18;4.00;;;1.17;;
16352;SDS011;8286;51.274;9.542;2023-04-03T09:02:46;1.00;;;1.00;;
16352;SDS011;8286;51.274;9.542;2023-04-03T09:05:15;1.47;;;1.00;;
16352;SDS011;8286;51.274;9.542;2023-04-03T09:07:46;1.40;;;1.00;;
16352;SDS011;8286;51.274;9.542;2023-04-03T09:10:14;1.70;;;1.37;;
16352;SDS011;8286;51.274;9.542;2023-04-03T09:12:42;2.37;;;0.87;;
16352;SDS011;8286;51.274;9.542;2023-04-03T09:15:17;1.70;;;1.00;;
16352;SDS011;8286;51.274;9.542;2023-04-03T09:17:59;1.70;;;1.30;;
16352;SDS011;8286;51.274;9.542;2023-04-03T09:20:32;3.30;;;1.63;;
16352;SDS011;8286;51.274;9.542;2023-04-03T09:23:11;2.03;;;0.90;;
16352;SDS011;8286;51.274;9.542;2023-04-03T09:25:41;1.83;;;1.00;;
16352;SDS011;8286;51.274;9.542;2023-04-03T09:28:08;2.30;;;1.27;;
16352;SDS011;8286;51.274;9.542;2023-04-03T09:30:36;4.23;;;1.20;;
16352;SDS011;8286;51.274;9.542;2023-04-03T09:33:04;1.00;;;0.90;;
16352;SDS011;8286;51.274;9.542;2023-04-03T09:35:32;0.90;;;0.90;;
16352;SDS011;8286;51.274;9.542;2023-04-03T09:38:01;0.93;;;0.70;;
16352;SDS011;8286;51.274;9.542;2023-04-03T09:40:40;1.80;;;1.20;;
16352;SDS011;8286;51.274;9.542;2023-04-03T09:45:55;1.03;;;0.80;;
16352;SDS011;8286;51.274;9.542;2023-04-03T09:48:24;4.43;;;1.00;;
16352;SDS011;8286;51.274;9.542;2023-04-03T09:50:58;0.93;;;0.93;;
16352;SDS011;8286;51.274;9.542;2023-04-03T09:53:28;0.90;;;0.63;;
16352;SDS011;8286;51.274;9.542;2023-04-03T09:55:57;1.50;;;1.23;;
16352;SDS011;8286;51.274;9.542;2023-04-03T09:58:25;1.17;;;0.80;;
16352;SDS011;8286;51.274;9.542;2023-04-03T10:00:56;3.23;;;0.80;;
16352;SDS011;8286;51.274;9.542;2023-04-03T10:03:24;2.17;;;0.77;;
16352;SDS011;8286;51.274;9.542;2023-04-03T10:05:53;0.80;;;0.80;;
16352;SDS011;8286;51.274;9.542;2023-04-03T10:08:22;3.30;;;1.00;;
16352;SDS011;8286;51.274;9.542;2023-04-03T10:13:50;1.47;;;0.80;;
16352;SDS011;8286;51.274;9.542;2023-04-03T10:16:20;2.07;;;1.20;;
16352;SDS011;8286;51.274;9.542;2023-04-03T10:18:51;3.27;;;1.17;;
16352;SDS011;8286;51.274;9.542;2023-04-03T10:21:24;1.63;;;0.90;;
16352;SDS011;8286;51.274;9.542;2023-04-03T10:23:58;2.90;;;1.03;;
16352;SDS011;8286;51.274;9.542;2023-04-03T10:26:31;1.37;;;0.73;;
16352;SDS011;8286;51.274;9.542;2023-04-03T10:29:02;2.10;;;0.80;;
16352;SDS011;8286;51.274;9.542;2023-04-03T10:31:37;3.47;;;1.33;;
16352;SDS011;8286;51.274;9.542;2023-04-03T10:34:10;1.33;;;0.93;;
16352;SDS011;8286;51.274;9.542;2023-04-03T10:36:45;0.60;;;0.50;;
16352;SDS011;8286;51.274;9.542;2023-04-03T10:39:20;0.80;;;0.80;;
16352;SDS011;8286;51.274;9.542;2023-04-03T10:41:56;2.00;;;0.70;;
16352;SDS011;8286;51.274;9.542;2023-04-03T10:44:30;1.90;;;0.90;;
16352;SDS011;8286;51.274;9.542;2023-04-03T10:47:04;1.50;;;0.87;;
16352;SDS011;8286;51.274;9.542;2023-04-03T10:49:37;1.10;;;0.93;;
16352;SDS011;8286;51.274;9.542;2023-04-03T10:52:12;5.67;;;1.00;;
16352;SDS011;8286;51.274;9.542;2023-04-03T10:54:43;0.73;;;0.60;;
16352;SDS011;8286;51.274;9.542;2023-04-03T10:57:14;1.47;;;0.80;;
16352;SDS011;8286;51.274;9.542;2023-04-03T10:59:41;1.40;;;0.80;;
16352;SDS011;8286;51.274;9.542;2023-04-03T11:02:14;1.00;;;0.90;;
16352;SDS011;8286;51.274;9.542;2023-04-03T11:04:44;1.90;;;1.03;;
16352;SDS011;8286;51.274;9.542;2023-04-03T11:07:15;0.80;;;0.80;;
16352;SDS011;8286;51.274;9.542;2023-04-03T11:09:46;1.63;;;0.80;;
16352;SDS011;8286;51.274;9.542;2023-04-03T11:12:16;0.73;;;0.73;;
16352;SDS011;8286;51.274;9.542;2023-04-03T11:14:45;1.73;;;0.70;;
16352;SDS011;8286;51.274;9.542;2023-04-03T11:17:21;0.80;;;0.80;;
16352;SDS011;8286;51.274;9.542;2023-04-03T11:19:57;1.00;;;0.90;;
16352;SDS011;8286;51.274;9.542;2023-04-03T11:22:27;0.70;;;0.70;;
16352;SDS011;8286;51.274;9.542;2023-04-03T11:24:57;2.97;;;1.60;;
16352;SDS011;8286;51.274;9.542;2023-04-03T11:27:30;1.97;;;0.70;;
16352;SDS011;8286;51.274;9.542;2023-04-03T11:30:02;1.90;;;1.07;;
16352;SDS011;8286;51.274;9.542;2023-04-03T11:32:38;1.90;;;0.90;;
16352;SDS011;8286;51.274;9.542;2023-04-03T11:35:13;1.00;;;0.90;;
16352;SDS011;8286;51.274;9.542;2023-04-03T11:37:40;1.57;;;0.90;;
16352;SDS011;8286;51.274;9.542;2023-04-03T11:40:18;1.03;;;0.90;;
16352;SDS011;8286;51.274;9.542;2023-04-03T11:42:47;1.07;;;0.80;;
16352;SDS011;8286;51.274;9.542;2023-04-03T11:45:16;3.87;;;1.37;;
16352;SDS011;8286;51.274;9.542;2023-04-03T11:47:50;2.63;;;0.87;;
16352;SDS011;8286;51.274;9.542;2023-04-03T11:53:25;0.97;;;0.90;;
16352;SDS011;8286;51.274;9.542;2023-04-03T12:01:48;1.90;;;1.10;;
16352;SDS011;8286;51.274;9.542;2023-04-03T12:04:18;3.60;;;1.00;;
16352;SDS011;8286;51.274;9.542;2023-04-03T12:06:50;0.97;;;0.93;;
16352;SDS011;8286;51.274;9.542;2023-04-03T12:12:35;2.97;;;1.03;;
16352;SDS011;8286;51.274;9.542;2023-04-03T12:15:17;2.03;;;0.73;;
16352;SDS011;8286;51.274;9.542;2023-04-03T12:17:46;1.27;;;0.60;;
16352;SDS011;8286;51.274;9.542;2023-04-03T12:23:29;8.70;;;1.33;;
16352;SDS011;8286;51.274;9.542;2023-04-03T12:26:00;0.90;;;0.90;;
16352;SDS011;8286;51.274;9.542;2023-04-03T12:28:36;1.30;;;1.20;;
16352;SDS011;8286;51.274;9.542;2023-04-03T12:31:04;1.97;;;0.90;;
16352;SDS011;8286;51.274;9.542;2023-04-03T12:33:33;2.17;;;1.07;;
16352;SDS011;8286;51.274;9.542;2023-04-03T12:36:10;2.03;;;1.07;;
16352;SDS011;8286;51.274;9.542;2023-04-03T12:38:45;0.90;;;0.90;;
16352;SDS011;8286;51.274;9.542;2023-04-03T12:41:26;1.23;;;0.77;;
16352;SDS011;8286;51.274;9.542;2023-04-03T12:44:03;4.63;;;1.47;;
16352;SDS011;8286;51.274;9.542;2023-04-03T12:46:37;0.93;;;0.87;;
16352;SDS011;8286;51.274;9.542;2023-04-03T12:49:13;3.03;;;1.23;;
16352;SDS011;8286;51.274;9.542;2023-04-03T12:51:46;1.40;;;1.10;;
16352;SDS011;8286;51.274;9.542;2023-04-03T12:54:15;2.37;;;1.17;;
16352;SDS011;8286;51.274;9.542;2023-04-03T12:56:43;3.27;;;1.03;;
16352;SDS011;8286;51.274;9.542;2023-04-03T12:59:13;1.93;;;0.87;;
16352;SDS011;8286;51.274;9.542;2023-04-03T13:01:41;1.53;;;0.97;;
16352;SDS011;8286;51.274;9.542;2023-04-03T13:04:09;2.60;;;1.10;;
16352;SDS011;8286;51.274;9.542;2023-04-03T13:06:37;3.17;;;1.00;;
16352;SDS011;8286;51.274;9.542;2023-04-03T13:09:06;2.73;;;0.97;;
16352;SDS011;8286;51.274;9.542;2023-04-03T13:11:39;1.37;;;0.90;;
16352;SDS011;8286;51.274;9.542;2023-04-03T13:14:14;1.63;;;1.00;;
16352;SDS011;8286;51.274;9.542;2023-04-03T13:16:52;1.20;;;1.10;;
16352;SDS011;8286;51.274;9.542;2023-04-03T13:19:18;2.93;;;1.10;;
16352;SDS011;8286;51.274;9.542;2023-04-03T13:21:45;3.37;;;1.13;;
16352;SDS011;8286;51.274;9.542;2023-04-03T13:24:12;1.47;;;1.00;;
16352;SDS011;8286;51.274;9.542;2023-04-03T13:26:41;1.33;;;0.90;;
16352;SDS011;8286;51.274;9.542;2023-04-03T13:29:17;1.83;;;1.60;;
16352;SDS011;8286;51.274;9.542;2023-04-03T13:31:47;4.57;;;1.33;;
16352;SDS011;8286;51.274;9.542;2023-04-03T13:34:19;1.33;;;1.00;;
16352;SDS011;8286;51.274;9.542;2023-04-03T13:36:54;2.23;;;1.20;;
16352;SDS011;8286;51.274;9.542;2023-04-03T13:39:23;2.37;;;0.90;;
16352;SDS011;8286;51.274;9.542;2023-04-03T13:41:53;1.80;;;1.03;;
16352;SDS011;8286;51.274;9.542;2023-04-03T13:44:26;1.03;;;1.00;;
16352;SDS011;8286;51.274;9.542;2023-04-03T13:46:55;1.67;;;0.90;;
16352;SDS011;8286;51.274;9.542;2023-04-03T13:49:27;1.90;;;1.27;;
16352;SDS011;8286;51.274;9.542;2023-04-03T13:51:56;2.07;;;1.30;;
16352;SDS011;8286;51.274;9.542;2023-04-03T13:54:24;1.00;;;1.00;;
16352;SDS011;8286;51.274;9.542;2023-04-03T13:56:57;0.90;;;0.90;;
16352;SDS011;8286;51.274;9.542;2023-04-03T13:59:27;2.97;;;1.30;;
16352;SDS011;8286;51.274;9.542;2023-04-03T14:01:56;4.67;;;1.30;;
16352;SDS011;8286;51.274;9.542;2023-04-03T14:04:44;2.00;;;0.90;;
16352;SDS011;8286;51.274;9.542;2023-04-03T14:07:14;1.90;;;1.00;;
16352;SDS011;8286;51.274;9.542;2023-04-03T14:09:43;2.63;;;1.40;;
16352;SDS011;8286;51.274;9.542;2023-04-03T14:12:14;2.47;;;1.73;;
16352;SDS011;8286;51.274;9.542;2023-04-03T14:14:43;1.63;;;1.30;;
16352;SDS011;8286;51.274;9.542;2023-04-03T14:17:13;1.60;;;1.23;;
16352;SDS011;8286;51.274;9.542;2023-04-03T14:19:41;2.07;;;1.10;;
16352;SDS011;8286;51.274;9.542;2023-04-03T14:22:11;2.63;;;1.20;;
16352;SDS011;8286;51.274;9.542;2023-04-03T14:24:41;1.37;;;1.20;;
16352;SDS011;8286;51.274;9.542;2023-04-03T14:27:11;3.57;;;1.80;;
16352;SDS011;8286;51.274;9.542;2023-04-03T14:29:43;2.23;;;1.50;;
16352;SDS011;8286;51.274;9.542;2023-04-03T14:32:10;2.40;;;1.17;;
16352;SDS011;8286;51.274;9.542;2023-04-03T14:34:38;4.23;;;1.37;;
16352;SDS011;8286;51.274;9.542;2023-04-03T14:37:04;3.83;;;1.00;;
16352;SDS011;8286;51.274;9.542;2023-04-03T14:39:31;2.73;;;1.70;;
16352;SDS011;8286;51.274;9.542;2023-04-03T14:41:58;2.00;;;1.10;;
16352;SDS011;8286;51.274;9.542;2023-04-03T14:44:26;1.67;;;1.20;;
16352;SDS011;8286;51.274;9.542;2023-04-03T14:46:52;1.43;;;1.10;;
16352;SDS011;8286;51.274;9.542;2023-04-03T14:49:22;3.23;;;1.73;;
16352;SDS011;8286;51.274;9.542;2023-04-03T14:51:51;2.30;;;1.37;;
16352;SDS011;8286;51.274;9.542;2023-04-03T14:54:18;1.87;;;1.10;;
16352;SDS011;8286;51.274;9.542;2023-04-03T14:56:50;1.80;;;1.50;;
16352;SDS011;8286;51.274;9.542;2023-04-03T14:59:17;2.07;;;1.23;;
16352;SDS011;8286;51.274;9.542;2023-04-03T15:01:46;2.50;;;1.03;;
16352;SDS011;8286;51.274;9.542;2023-04-03T15:04:13;1.37;;;1.23;;
16352;SDS011;8286;51.274;9.542;2023-04-03T15:06:40;2.23;;;1.10;;
16352;SDS011;8286;51.274;9.542;2023-04-03T15:09:10;1.70;;;1.07;;
16352;SDS011;8286;51.274;9.542;2023-04-03T15:11:44;1.87;;;1.33;;
16352;SDS011;8286;51.274;9.542;2023-04-03T15:14:10;1.10;;;1.10;;
16352;SDS011;8286;51.274;9.542;2023-04-03T15:16:37;2.00;;;1.20;;
16352;SDS011;8286;51.274;9.542;2023-04-03T15:19:05;1.20;;;1.10;;
16352;SDS011;8286;51.274;9.542;2023-04-03T15:21:31;2.23;;;1.53;;
16352;SDS011;8286;51.274;9.542;2023-04-03T15:23:58;3.43;;;1.30;;
16352;SDS011;8286;51.274;9.542;2023-04-03T15:26:24;2.70;;;1.10;;
16352;SDS011;8286;51.274;9.542;2023-04-03T15:28:51;3.27;;;1.17;;
16352;SDS011;8286;51.274;9.542;2023-04-03T15:31:17;2.20;;;1.30;;
16352;SDS011;8286;51.274;9.542;2023-04-03T15:33:44;2.50;;;1.03;;